createdAt,value
2019-02-27T00:01:49.675Z,6.54
2019-02-27T00:04:16.027Z,6.54
2019-02-27T00:06:47.697Z,6.55
2019-02-27T00:09:13.527Z,6.59
2019-02-27T00:11:45.838Z,6.51
2019-02-27T00:14:12.567Z,6.60
2019-02-27T00:16:41.785Z,6.53
2019-02-27T00:19:10.137Z,6.68
2019-02-27T00:21:38.071Z,6.63
2019-02-27T00:24:05.851Z,6.75
2019-02-27T00:26:36.496Z,6.82
2019-02-27T00:29:04.303Z,6.69
2019-02-27T00:31:32.105Z,6.39
2019-02-27T00:34:00.515Z,6.24
2019-02-27T00:36:29.269Z,6.29
2019-02-27T00:38:59.861Z,6.61
2019-02-27T00:41:27.673Z,6.65
2019-02-27T00:43:55.596Z,6.79
2019-02-27T00:46:24.529Z,6.79
2019-02-27T00:48:52.354Z,6.72
2019-02-27T00:51:20.145Z,6.49
2019-02-27T00:53:47.955Z,6.54
2019-02-27T00:56:17.653Z,6.49
2019-02-27T00:58:45.493Z,6.47
2019-02-27T01:01:14.311Z,6.47
2019-02-27T01:03:42.104Z,6.47
2019-02-27T01:06:12.286Z,6.62
2019-02-27T01:08:41.569Z,6.68
2019-02-27T01:11:12.013Z,6.34
2019-02-27T01:13:40.187Z,6.51
2019-02-27T01:16:10.291Z,6.60
2019-02-27T01:18:38.262Z,6.43
2019-02-27T01:21:11.171Z,6.26
2019-02-27T01:23:44.629Z,6.30
2019-02-27T01:26:12.667Z,6.51
2019-02-27T01:28:44.634Z,6.54
2019-02-27T01:31:11.369Z,6.67
2019-02-27T01:33:42.220Z,6.50
2019-02-27T01:36:10.321Z,6.46
2019-02-27T01:38:41.670Z,6.45
2019-02-27T01:41:11.266Z,6.43
2019-02-27T01:43:42.468Z,6.52
2019-02-27T01:46:13.884Z,6.68
2019-02-27T01:48:43.683Z,6.68
2019-02-27T01:51:14.272Z,6.50
2019-02-27T01:53:42.691Z,6.72
2019-02-27T01:56:11.467Z,6.86
2019-02-27T01:58:44.246Z,6.69
2019-02-27T02:01:12.925Z,6.70
2019-02-27T02:03:47.236Z,6.48
2019-02-27T02:06:16.279Z,6.35
2019-02-27T02:08:48.248Z,6.38
2019-02-27T02:11:19.652Z,6.46
2019-02-27T02:14:34.939Z,6.49
2019-02-27T02:17:45.955Z,6.33
2019-02-27T02:20:53.091Z,6.21
2019-02-27T02:24:03.347Z,6.34
2019-02-27T02:27:13.428Z,6.35
2019-02-27T02:30:49.890Z,6.27
2019-02-27T02:34:13.392Z,6.26
2019-02-27T02:37:25.512Z,6.17
2019-02-27T02:40:55.195Z,6.20
2019-02-27T02:44:06.873Z,6.03
2019-02-27T02:47:21.090Z,5.92
2019-02-27T02:50:38.779Z,5.93
2019-02-27T02:53:49.783Z,5.84
2019-02-27T02:57:44.779Z,5.80
2019-02-27T03:00:43.728Z,5.80
2019-02-27T03:03:43.249Z,5.75
2019-02-27T03:07:16.550Z,5.66
2019-02-27T03:10:30.663Z,5.63
2019-02-27T03:14:01.446Z,5.54
2019-02-27T03:17:17.626Z,5.50
2019-02-27T03:20:26.218Z,5.49
2019-02-27T03:24:27.953Z,5.42
2019-02-27T03:27:32.401Z,5.39
2019-02-27T03:30:51.177Z,5.07
2019-02-27T03:34:26.232Z,5.20
2019-02-27T03:37:40.188Z,5.17
2019-02-27T03:41:34.776Z,5.06
2019-02-27T03:44:45.062Z,5.04
2019-02-27T03:48:03.547Z,5.03
2019-02-27T03:51:37.664Z,5.00
2019-02-27T03:54:44.950Z,4.74
2019-02-27T03:58:02.246Z,4.70
2019-02-27T04:01:30.056Z,4.67
2019-02-27T04:04:53.271Z,4.80
2019-02-27T04:07:46.635Z,4.76
2019-02-27T04:10:15.872Z,4.60
2019-02-27T04:12:51.769Z,4.60
2019-02-27T04:15:23.399Z,4.58
2019-02-27T04:17:53.020Z,4.47
2019-02-27T04:20:31.412Z,4.45
2019-02-27T04:23:03.613Z,4.44
2019-02-27T04:25:35.186Z,4.34
2019-02-27T04:28:06.051Z,4.35
2019-02-27T04:30:41.285Z,4.36
2019-02-27T04:33:12.076Z,4.35
2019-02-27T04:35:41.822Z,4.34
2019-02-27T04:38:21.318Z,4.26
2019-02-27T04:40:53.200Z,4.30
2019-02-27T04:43:23.248Z,4.22
2019-02-27T04:45:57.712Z,4.13
2019-02-27T04:48:37.341Z,4.05
2019-02-27T04:53:40.922Z,3.99
2019-02-27T04:56:14.425Z,3.98
2019-02-27T04:58:48.203Z,4.00
2019-02-27T05:01:27.176Z,4.16
2019-02-27T05:04:02.714Z,4.14
2019-02-27T05:06:37.689Z,4.12
2019-02-27T05:09:12.687Z,4.15
2019-02-27T05:11:57.711Z,4.18
2019-02-27T05:14:35.958Z,4.10
2019-02-27T05:17:07.608Z,4.06
2019-02-27T05:19:42.342Z,3.96
2019-02-27T05:22:26.198Z,3.98
2019-02-27T05:25:00.336Z,3.98
2019-02-27T05:27:33.632Z,3.98
2019-02-27T05:30:12.025Z,3.87
2019-02-27T05:32:43.280Z,3.84
2019-02-27T05:35:37.103Z,3.68
2019-02-27T05:38:21.232Z,3.58
2019-02-27T05:40:59.872Z,3.54
2019-02-27T05:43:33.758Z,3.70
2019-02-27T05:46:10.496Z,3.61
2019-02-27T05:48:50.959Z,3.76
2019-02-27T05:51:29.334Z,3.78
2019-02-27T05:54:08.008Z,3.83
2019-02-27T05:56:53.615Z,3.82
2019-02-27T05:59:29.433Z,3.76
2019-02-27T06:02:02.928Z,3.75
2019-02-27T06:04:42.456Z,3.67
2019-02-27T06:07:35.219Z,3.69
2019-02-27T06:10:08.919Z,3.68
2019-02-27T06:12:45.394Z,3.72
2019-02-27T06:15:21.190Z,3.72
2019-02-27T06:17:58.728Z,3.69
2019-02-27T06:20:41.992Z,3.73
2019-02-27T06:23:16.278Z,4.10
2019-02-27T06:25:50.800Z,4.19
2019-02-27T06:28:23.337Z,3.95
2019-02-27T06:30:59.267Z,4.07
2019-02-27T06:33:52.996Z,4.17
2019-02-27T06:36:25.464Z,4.65
2019-02-27T06:39:01.559Z,4.69
2019-02-27T06:41:35.014Z,4.50
2019-02-27T06:44:07.497Z,5.37
2019-02-27T06:46:38.989Z,6.09
2019-02-27T06:49:10.346Z,6.08
2019-02-27T06:51:41.762Z,6.07
2019-02-27T06:54:13.235Z,6.94
2019-02-27T06:56:44.664Z,6.70
2019-02-27T06:59:18.003Z,6.20
2019-02-27T07:01:49.309Z,6.17
2019-02-27T07:04:20.774Z,6.64
2019-02-27T07:06:55.198Z,6.76
2019-02-27T07:09:25.314Z,6.11
2019-02-27T07:11:56.730Z,6.60
2019-02-27T07:14:31.281Z,7.60
2019-02-27T07:17:02.759Z,7.27
2019-02-27T07:19:34.225Z,6.76
2019-02-27T07:22:06.359Z,7.02
2019-02-27T07:24:39.288Z,7.67
2019-02-27T07:27:10.748Z,8.31
2019-02-27T07:29:43.006Z,8.28
2019-02-27T07:32:14.629Z,8.64
2019-02-27T07:34:46.729Z,7.46
2019-02-27T07:37:19.329Z,7.88
2019-02-27T07:39:50.821Z,7.46
2019-02-27T07:42:22.844Z,7.87
2019-02-27T07:44:54.379Z,7.95
2019-02-27T07:47:25.829Z,8.92
2019-02-27T07:49:57.309Z,9.17
2019-02-27T07:52:32.108Z,8.20
2019-02-27T07:55:01.895Z,8.56
2019-02-27T07:57:33.388Z,8.54
2019-02-27T08:00:05.260Z,7.99
2019-02-27T08:02:37.762Z,9.34
2019-02-27T08:05:09.591Z,9.94
2019-02-27T08:07:41.088Z,11.59
2019-02-27T08:10:16.224Z,10.91
2019-02-27T08:12:48.013Z,10.27
2019-02-27T08:15:19.756Z,11.26
2019-02-27T08:17:51.398Z,10.48
2019-02-27T08:20:24.896Z,12.79
2019-02-27T08:22:57.742Z,12.66
2019-02-27T08:25:29.412Z,11.46
2019-02-27T08:28:00.857Z,11.61
2019-02-27T08:30:37.245Z,11.06
2019-02-27T08:33:12.681Z,10.28
2019-02-27T08:35:46.415Z,10.63
2019-02-27T08:38:23.660Z,11.28
2019-02-27T08:41:02.141Z,11.82
2019-02-27T08:43:44.479Z,11.75
2019-02-27T08:46:17.508Z,11.29
2019-02-27T08:49:00.985Z,11.39
2019-02-27T08:51:36.396Z,12.41
2019-02-27T08:54:10.585Z,13.53
2019-02-27T08:57:01.730Z,12.98
2019-02-27T08:59:39.892Z,11.70
2019-02-27T09:02:15.101Z,11.24
2019-02-27T09:04:46.597Z,11.63
2019-02-27T09:07:19.871Z,12.77
2019-02-27T09:09:52.295Z,12.81
2019-02-27T09:12:23.950Z,13.79
2019-02-27T09:14:56.033Z,14.65
2019-02-27T09:17:27.910Z,13.64
2019-02-27T09:19:59.473Z,13.67
2019-02-27T09:22:31.229Z,13.11
2019-02-27T09:25:04.923Z,13.78
2019-02-27T09:27:44.905Z,13.35
2019-02-27T09:30:28.763Z,13.88
2019-02-27T09:33:07.637Z,14.45
2019-02-27T09:35:48.882Z,16.07
2019-02-27T09:38:33.731Z,16.30
2019-02-27T09:41:12.400Z,17.27
2019-02-27T09:43:47.204Z,16.16
2019-02-27T09:46:23.560Z,14.35
2019-02-27T09:48:58.025Z,14.16
2019-02-27T09:51:42.202Z,14.32
2019-02-27T09:57:14.409Z,14.59
2019-02-27T09:59:53.695Z,14.60
2019-02-27T10:02:26.866Z,14.86
2019-02-27T10:05:06.509Z,14.54
2019-02-27T10:07:44.055Z,15.74
2019-02-27T10:10:17.426Z,15.64
2019-02-27T10:12:48.945Z,15.53
2019-02-27T10:15:22.526Z,14.79
2019-02-27T10:18:04.287Z,14.66
2019-02-27T10:20:37.331Z,15.13
2019-02-27T10:23:09.813Z,16.07
2019-02-27T10:25:43.502Z,16.30
2019-02-27T10:28:14.422Z,15.40
2019-02-27T10:30:46.994Z,14.86
2019-02-27T10:33:19.121Z,15.32
2019-02-27T10:35:50.823Z,15.43
2019-02-27T10:38:22.938Z,15.34
2019-02-27T10:40:55.114Z,15.27
2019-02-27T10:43:30.068Z,15.31
2019-02-27T10:46:01.518Z,15.41
2019-02-27T10:48:32.899Z,15.55
2019-02-27T10:51:04.751Z,15.53
2019-02-27T10:53:36.217Z,15.62
2019-02-27T10:56:08.010Z,15.64
2019-02-27T10:58:47.656Z,15.74
2019-02-27T11:01:20.898Z,16.08
2019-02-27T11:04:00.488Z,16.00
2019-02-27T11:06:46.610Z,15.96
2019-02-27T11:09:32.341Z,16.13
2019-02-27T11:12:10.082Z,16.15
2019-02-27T11:14:43.140Z,16.70
2019-02-27T11:17:14.625Z,17.58
2019-02-27T11:19:47.467Z,16.96
2019-02-27T11:22:18.967Z,16.52
2019-02-27T11:24:52.387Z,15.73
2019-02-27T11:27:23.627Z,16.48
2019-02-27T11:29:59.630Z,16.76
2019-02-27T11:32:31.832Z,16.94
2019-02-27T11:35:05.883Z,16.80
2019-02-27T11:37:37.660Z,17.09
2019-02-27T11:40:11.826Z,16.64
2019-02-27T11:42:44.241Z,16.55
2019-02-27T11:45:23.751Z,16.34
2019-02-27T11:47:53.156Z,16.45
2019-02-27T11:50:24.677Z,17.25
2019-02-27T11:53:01.848Z,17.03
2019-02-27T11:55:36.035Z,17.30
2019-02-27T11:58:11.335Z,17.33
2019-02-27T12:00:48.637Z,17.37
2019-02-27T12:03:22.588Z,16.48
2019-02-27T12:05:57.690Z,16.59
2019-02-27T12:08:30.923Z,17.14
2019-02-27T12:11:02.932Z,17.23
2019-02-27T12:13:35.651Z,16.97
2019-02-27T12:16:08.090Z,16.69
2019-02-27T12:18:39.737Z,17.12
2019-02-27T12:21:12.700Z,16.35
2019-02-27T12:23:47.612Z,16.79
2019-02-27T12:26:23.022Z,17.30
2019-02-27T12:28:56.843Z,16.65
2019-02-27T12:31:28.366Z,16.89
2019-02-27T12:34:02.585Z,17.63
2019-02-27T12:36:33.765Z,16.42
2019-02-27T12:39:06.542Z,16.60
2019-02-27T12:41:38.221Z,16.99
2019-02-27T12:44:09.696Z,17.65
2019-02-27T12:46:41.141Z,17.27
2019-02-27T12:49:12.639Z,17.37
2019-02-27T12:51:44.108Z,17.16
2019-02-27T12:54:15.544Z,17.41
2019-02-27T12:56:47.504Z,17.19
2019-02-27T12:59:19.857Z,17.04
2019-02-27T13:01:51.874Z,17.37
2019-02-27T13:04:23.423Z,17.13
2019-02-27T13:06:54.951Z,17.36
2019-02-27T13:09:26.401Z,17.55
2019-02-27T13:11:57.874Z,17.67
2019-02-27T13:14:33.043Z,17.13
2019-02-27T13:17:06.964Z,17.49
2019-02-27T13:19:41.442Z,18.10
2019-02-27T13:22:29.260Z,18.03
2019-02-27T13:25:04.354Z,18.18
2019-02-27T13:27:40.389Z,18.51
2019-02-27T13:30:17.920Z,18.35
2019-02-27T13:32:53.820Z,17.99
2019-02-27T13:35:30.742Z,17.65
2019-02-27T13:38:11.566Z,17.60
2019-02-27T13:40:43.032Z,17.72
2019-02-27T13:43:14.601Z,17.37
2019-02-27T13:45:47.694Z,17.86
2019-02-27T13:48:19.631Z,18.17
2019-02-27T13:50:51.277Z,17.88
2019-02-27T13:53:25.831Z,18.47
2019-02-27T13:55:56.111Z,17.63
2019-02-27T13:58:27.654Z,17.02
2019-02-27T14:00:59.153Z,17.71
2019-02-27T14:03:30.699Z,18.05
2019-02-27T14:06:02.156Z,17.83
2019-02-27T14:08:33.696Z,18.26
2019-02-27T14:11:05.065Z,17.64
2019-02-27T14:13:36.621Z,18.18
2019-02-27T14:16:08.485Z,17.79
2019-02-27T14:18:40.109Z,18.01
2019-02-27T14:21:14.860Z,17.92
2019-02-27T14:23:46.952Z,18.09
2019-02-27T14:26:18.967Z,17.66
2019-02-27T14:28:52.147Z,17.98
2019-02-27T14:31:23.576Z,18.19
2019-02-27T14:33:56.516Z,18.52
2019-02-27T14:36:44.930Z,18.67
2019-02-27T14:39:16.102Z,17.80
2019-02-27T14:41:51.221Z,18.21
2019-02-27T14:44:31.120Z,18.21
2019-02-27T14:47:05.116Z,18.21
2019-02-27T14:49:40.251Z,18.00
2019-02-27T14:52:16.680Z,18.15
2019-02-27T14:54:53.442Z,17.73
